Terminal Aerodrome Forecast
Issued by NWS Cleveland, OH

Home | Current Version | Previous Version | Graphics & Text | Print | Product List | Glossary Off
Versions: 1 2 3 4 5 6 7 8 9 10 11 12 13 14 15 16

000
FTUS41 KCLE 061732
TAFCAK
TAF
KCAK 061732Z 0618/0718 VRB04KT P6SM VCSH SCT045 BKN120
     FM070000 19004KT P6SM SCT100
     FM071500 21012KT P6SM SCT040 BKN080=

USA.gov is the U.S. government's official web portal to all federal, state and local government web resources and services.